Time;durP1;ratioP1;P1;durP2;ratioP2;P2;SDS_P1;SDS_P2;PMS_P1;PMS_P2;Temp;Humidity;BMP_temperature;BMP_pressure;BME280_temperature;BME280_humidity;BME280_pressure;Samples;Min_cycle;Max_cycle;Signal;HPM_P1;HPM_P2
2023/02/25 00:00:43;;;;;;;1999.90;999.90;;;6.20;99.90;;;;;;5095588;28;20126;-73
2023/02/25 00:03:10;;;;;;;1999.90;999.90;;;6.10;99.90;;;;;;5091915;28;20392;-73
2023/02/25 00:05:40;;;;;;;1999.90;999.90;;;6.10;99.90;;;;;;5075035;28;20024;-73
2023/02/25 00:08:06;;;;;;;1999.90;999.90;;;6.10;99.90;;;;;;5075026;28;20052;-73
2023/02/25 00:10:32;;;;;;;1999.90;999.90;;;6.10;99.90;;;;;;5075167;28;20063;-74
2023/02/25 00:12:58;;;;;;;1999.90;999.90;;;6.10;99.90;;;;;;5074918;28;20040;-79
2023/02/25 00:15:24;;;;;;;1999.90;999.90;;;6.10;99.90;;;;;;5073598;28;20437;-73
2023/02/25 00:17:49;;;;;;;1999.90;999.90;;;6.10;99.90;;;;;;5074916;28;20100;-73
2023/02/25 00:20:19;;;;;;;1999.90;999.90;;;6.10;99.90;;;;;;5074459;28;20124;-73
2023/02/25 00:22:45;;;;;;;1999.90;999.90;;;6.10;99.90;;;;;;5075080;28;20017;-73
2023/02/25 00:25:11;;;;;;;1999.90;999.90;;;6.10;99.90;;;;;;5074527;28;20485;-74
2023/02/25 00:27:36;;;;;;;1999.90;999.90;;;6.10;99.90;;;;;;5074690;28;20028;-73
2023/02/25 00:30:04;;;;;;;1999.90;999.90;;;6.10;99.90;;;;;;5074532;28;20063;-73
2023/02/25 00:32:29;;;;;;;1999.90;999.90;;;6.10;99.90;;;;;;5074885;28;20382;-73
2023/02/25 00:34:56;;;;;;;1999.90;999.90;;;6.00;99.90;;;;;;5074744;28;20127;-73
2023/02/25 00:37:22;;;;;;;1999.90;999.90;;;6.00;99.90;;;;;;5074288;28;20032;-74
2023/02/25 00:39:47;;;;;;;1999.90;999.90;;;6.00;99.90;;;;;;5089715;28;20143;-73
2023/02/25 00:42:15;;;;;;;1999.90;999.90;;;6.00;99.90;;;;;;5094746;28;20031;-73
2023/02/25 00:44:48;;;;;;;1999.90;999.90;;;6.00;99.90;;;;;;5094835;28;20026;-79
2023/02/25 00:47:18;;;;;;;1999.90;999.90;;;6.00;99.90;;;;;;5090246;28;20046;-74
2023/02/25 00:49:46;;;;;;;1999.90;999.90;;;6.00;99.90;;;;;;5094366;28;20028;-73
2023/02/25 00:52:12;;;;;;;1999.90;999.90;;;5.90;99.90;;;;;;5094633;28;20028;-73
2023/02/25 00:54:38;;;;;;;1999.90;999.90;;;5.90;99.90;;;;;;5094607;28;20248;-73
2023/02/25 00:57:04;;;;;;;1999.90;999.90;;;5.80;99.90;;;;;;5094192;28;20073;-78
2023/02/25 00:59:30;;;;;;;1999.90;999.90;;;5.80;99.90;;;;;;5092918;28;20450;-74
2023/02/25 01:01:56;;;;;;;1999.90;999.90;;;5.70;99.90;;;;;;5094510;28;20020;-73
2023/02/25 01:04:22;;;;;;;1999.90;999.90;;;5.70;99.90;;;;;;5080692;28;20561;-73
2023/02/25 01:06:48;;;;;;;1999.90;999.90;;;5.70;99.90;;;;;;5074388;28;20033;-73
2023/02/25 01:09:13;;;;;;;1999.90;999.90;;;5.60;99.90;;;;;;5073740;28;20037;-73
2023/02/25 01:11:42;;;;;;;1999.90;999.90;;;5.70;99.90;;;;;;5073909;28;20031;-73
2023/02/25 01:14:12;;;;;;;1999.90;999.90;;;5.60;99.90;;;;;;5073807;28;20489;-74
2023/02/25 01:16:38;;;;;;;1999.90;999.90;;;5.60;99.90;;;;;;5073596;28;20370;-73
2023/02/25 01:19:07;;;;;;;1999.90;999.90;;;5.60;99.90;;;;;;5072930;28;20032;-73
2023/02/25 01:21:39;;;;;;;1999.90;999.90;;;5.60;99.90;;;;;;5073631;28;20017;-73
2023/02/25 01:24:09;;;;;;;1999.90;999.90;;;5.60;99.90;;;;;;5072465;28;20408;-78
2023/02/25 01:26:41;;;;;;;1999.90;999.90;;;5.60;99.90;;;;;;5073840;28;20467;-73
2023/02/25 01:29:38;;;;;;;1999.90;999.90;;;5.50;99.90;;;;;;5073343;28;20033;-74
2023/02/25 01:32:06;;;;;;;1999.90;999.90;;;5.60;99.90;;;;;;5065066;28;20514;-73
2023/02/25 01:34:32;;;;;;;1999.90;999.90;;;5.60;99.90;;;;;;5073628;28;20397;-73
2023/02/25 01:36:58;;;;;;;1999.90;999.90;;;5.60;99.90;;;;;;5073454;28;20035;-79
2023/02/25 01:39:25;;;;;;;1999.90;999.90;;;5.60;99.90;;;;;;5085166;28;20455;-73
2023/02/25 01:41:52;;;;;;;1999.90;999.90;;;5.60;99.90;;;;;;5093401;28;20036;-73
2023/02/25 01:44:32;;;;;;;1999.90;999.90;;;5.60;99.90;;;;;;5088545;28;20027;-73
2023/02/25 01:47:00;;;;;;;1999.90;999.90;;;5.60;99.90;;;;;;5093282;28;20585;-73
2023/02/25 01:49:29;;;;;;;1999.90;999.90;;;5.50;99.90;;;;;;5093357;28;20051;-73
2023/02/25 01:52:01;;;;;;;1999.90;999.90;;;5.50;99.90;;;;;;5093342;28;20066;-73
2023/02/25 01:54:27;;;;;;;1999.90;999.90;;;5.40;99.90;;;;;;5093534;28;20097;-73
2023/02/25 01:56:55;;;;;;;1999.90;999.90;;;5.40;99.90;;;;;;5093395;28;20049;-73
2023/02/25 01:59:23;;;;;;;1999.90;999.90;;;5.30;99.90;;;;;;5092886;28;20404;-79
2023/02/25 02:01:50;;;;;;;1999.90;999.90;;;5.20;99.90;;;;;;5093280;28;20137;-73
2023/02/25 02:04:17;;;;;;;1999.90;999.90;;;5.20;99.90;;;;;;5080607;28;20032;-73
2023/02/25 02:06:45;;;;;;;1999.90;999.90;;;5.10;99.90;;;;;;5073143;28;20016;-73
2023/02/25 02:09:14;;;;;;;1999.90;999.90;;;5.00;99.90;;;;;;5072636;28;20043;-73
2023/02/25 02:11:40;;;;;;;1999.90;999.90;;;5.00;99.90;;;;;;5072319;28;20021;-73
2023/02/25 02:14:09;;;;;;;1999.90;999.90;;;4.90;99.90;;;;;;5072725;28;20492;-79
2023/02/25 02:16:43;;;;;;;1999.90;999.90;;;4.80;99.90;;;;;;5072886;28;20485;-73
2023/02/25 02:19:23;;;;;;;1999.90;999.90;;;4.70;99.90;;;;;;5071848;28;20083;-73
2023/02/25 02:21:56;;;;;;;1999.90;999.90;;;4.60;99.90;;;;;;5072427;28;20055;-73
2023/02/25 02:24:51;;;;;;;1999.90;999.90;;;4.60;99.90;;;;;;5072592;28;20497;-73
2023/02/25 02:27:38;;;;;;;1999.90;999.90;;;4.50;99.90;;;;;;5072167;28;20397;-79
2023/02/25 02:30:33;;;;;;;1999.90;999.90;;;4.40;99.90;;;;;;5072407;28;20032;-79
2023/02/25 02:33:08;;;;;;;1999.90;999.90;;;4.40;99.90;;;;;;5072553;28;20369;-73
2023/02/25 02:35:48;;;;;;;1999.90;999.90;;;4.30;99.90;;;;;;5072248;28;20070;-73
2023/02/25 02:38:29;;;;;;;1999.90;999.90;;;4.30;99.90;;;;;;5074517;28;20025;-74
2023/02/25 02:41:36;;;;;;;1999.90;999.90;;;4.20;99.90;;;;;;5092611;28;20511;-73
2023/02/25 02:44:24;;;;;;;1999.90;999.90;;;4.20;99.90;;;;;;5092381;28;20024;-73
2023/02/25 02:47:08;;;;;;;1999.90;999.90;;;4.20;99.90;;;;;;5070561;28;20047;-74
2023/02/25 02:49:48;;;;;;;1999.90;999.90;;;4.10;99.90;;;;;;5092163;28;20485;-74
2023/02/25 02:52:26;;;;;;;1999.90;999.90;;;4.10;99.90;;;;;;5092355;28;20081;-79
2023/02/25 02:55:03;;;;;;;1999.90;999.90;;;4.10;99.90;;;;;;5092601;28;20020;-73
2023/02/25 02:57:31;;;;;;;1999.90;999.90;;;4.10;99.90;;;;;;5092120;28;20492;-73
2023/02/25 03:00:16;;;;;;;1999.90;999.90;;;4.00;99.90;;;;;;5092088;28;20552;-73
2023/02/25 03:02:51;;;;;;;1999.90;999.90;;;4.00;99.90;;;;;;5092418;28;20023;-73
2023/02/25 03:05:18;;;;;;;1999.90;999.90;;;4.00;99.90;;;;;;5071668;28;20024;-73
2023/02/25 03:08:00;;;;;;;1999.90;999.90;;;4.00;99.90;;;;;;5072449;28;20028;-78
2023/02/25 03:10:26;;;;;;;1999.90;999.90;;;3.90;99.90;;;;;;5072301;28;20028;-74
2023/02/25 03:12:51;;;;;;;1999.90;999.90;;;3.90;99.90;;;;;;5072049;28;20466;-73
2023/02/25 03:15:17;;;;;;;1999.90;999.90;;;3.80;99.90;;;;;;5071643;28;20024;-73
2023/02/25 03:17:52;;;;;;;1999.90;999.90;;;3.80;99.90;;;;;;5071892;28;20032;-73
2023/02/25 03:20:25;;;;;;;1999.90;999.90;;;3.80;99.90;;;;;;5071211;28;20112;-78
2023/02/25 03:22:52;;;;;;;;;;;3.70;99.90;;;;;;5073478;28;20024;-73
2023/02/25 03:25:17;;;;;;;1999.90;999.90;;;3.70;99.90;;;;;;5075722;28;19904;-73
2023/02/25 03:27:45;;;;;;;1999.90;999.90;;;3.70;99.90;;;;;;5075737;28;20020;-73
2023/02/25 03:30:21;;;;;;;1999.90;999.90;;;3.70;99.90;;;;;;5075711;28;20103;-78
2023/02/25 03:33:14;;;;;;;1999.90;999.90;;;3.80;99.90;;;;;;5076100;28;20031;-79
2023/02/25 03:35:41;;;;;;;1999.90;999.90;;;3.80;99.90;;;;;;5046953;28;20037;-73
2023/02/25 03:38:10;;;;;;;1999.90;999.90;;;3.90;99.90;;;;;;5076650;28;20569;-73
2023/02/25 03:40:39;;;;;;;1999.90;999.90;;;3.80;99.90;;;;;;5096150;28;20043;-73
2023/02/25 03:43:14;;;;;;;1999.90;999.90;;;3.80;99.90;;;;;;5088843;28;20020;-73
2023/02/25 03:45:42;;;;;;;1999.90;999.90;;;3.80;99.90;;;;;;5091552;28;20093;-73
2023/02/25 03:48:09;;;;;;;1999.90;999.90;;;3.70;99.90;;;;;;5095770;28;20032;-73
2023/02/25 03:50:42;;;;;;;1999.90;999.90;;;3.70;99.90;;;;;;5095906;28;20388;-73
2023/02/25 03:53:07;;;;;;;1999.90;999.90;;;3.70;99.90;;;;;;5095644;28;20024;-73
2023/02/25 03:55:33;;;;;;;1999.90;999.90;;;3.70;99.90;;;;;;5095573;28;20086;-73
2023/02/25 03:57:59;;;;;;;1999.90;999.90;;;3.70;99.90;;;;;;5095549;28;20028;-79
2023/02/25 04:00:28;;;;;;;1999.90;999.90;;;3.60;99.90;;;;;;5094318;28;20028;-78
2023/02/25 04:02:54;;;;;;;1999.90;999.90;;;3.60;99.90;;;;;;5094601;28;20392;-73
2023/02/25 04:05:21;;;;;;;1999.90;999.90;;;3.60;99.90;;;;;;5074970;28;20083;-73
2023/02/25 04:07:47;;;;;;;1999.90;999.90;;;3.60;99.90;;;;;;5090695;28;20405;-73
2023/02/25 04:10:15;;;;;;;1999.90;999.90;;;3.60;99.90;;;;;;5075067;28;20027;-73
2023/02/25 04:12:41;;;;;;;1999.90;999.90;;;3.60;99.90;;;;;;5075211;28;20116;-78
2023/02/25 04:15:08;;;;;;;1999.90;999.90;;;3.60;99.90;;;;;;5074847;28;20406;-73
2023/02/25 04:17:34;;;;;;;1999.90;999.90;;;3.50;99.90;;;;;;5089963;28;20470;-73
2023/02/25 04:20:00;;;;;;;1999.90;999.90;;;3.50;99.90;;;;;;5074740;28;20097;-73
2023/02/25 04:22:25;;;;;;;1999.90;999.90;;;3.40;99.90;;;;;;5074248;28;20163;-73
2023/02/25 04:24:51;;;;;;;1999.90;999.90;;;3.40;99.90;;;;;;5075199;28;20021;-78
2023/02/25 04:27:17;;;;;;;1999.90;999.90;;;3.40;99.90;;;;;;5074496;28;20025;-74
2023/02/25 04:29:44;;;;;;;1999.90;999.90;;;3.40;99.90;;;;;;5074695;28;20545;-73
2023/02/25 04:32:10;;;;;;;1999.90;999.90;;;3.40;99.90;;;;;;5074702;28;20036;-73
2023/02/25 04:34:36;;;;;;;1999.90;999.90;;;3.50;99.90;;;;;;5074779;28;20477;-73
2023/02/25 04:37:03;;;;;;;1999.90;999.90;;;3.50;99.90;;;;;;5074438;28;20032;-79
2023/02/25 04:39:29;;;;;;;1999.90;999.90;;;3.50;99.90;;;;;;5086698;28;20107;-78
2023/02/25 04:41:55;;;;;;;1999.90;999.90;;;3.50;99.90;;;;;;5086609;28;20400;-73
2023/02/25 04:44:21;;;;;;;1999.90;999.90;;;3.60;99.90;;;;;;5094722;28;20032;-73
2023/02/25 04:46:50;;;;;;;1999.90;999.90;;;3.60;99.90;;;;;;5090678;28;20075;-73
2023/02/25 04:49:17;;;;;;;1999.90;999.90;;;3.50;99.90;;;;;;5093424;28;20134;-78
2023/02/25 04:51:43;;;;;;;1999.90;999.90;;;3.50;99.90;;;;;;5094515;28;20089;-79
2023/02/25 04:54:09;;;;;;;1999.90;999.90;;;3.50;99.90;;;;;;5094346;28;20028;-73
2023/02/25 04:56:35;;;;;;;1999.90;999.90;;;3.50;99.90;;;;;;5094686;28;20450;-73
2023/02/25 04:59:01;;;;;;;1999.90;999.90;;;3.50;99.90;;;;;;5094310;28;20390;-74
2023/02/25 05:01:27;;;;;;;1999.90;999.90;;;3.50;99.90;;;;;;5073930;28;20471;-79
2023/02/25 05:03:55;;;;;;;1999.90;999.90;;;3.50;99.90;;;;;;5074114;28;20104;-79
2023/02/25 05:06:24;;;;;;;1999.90;999.90;;;3.50;99.90;;;;;;5074117;28;20478;-73
2023/02/25 05:08:50;;;;;;;1999.90;999.90;;;3.50;99.90;;;;;;5073998;28;20024;-73
2023/02/25 05:11:17;;;;;;;1999.90;999.90;;;3.50;99.90;;;;;;5073907;28;20024;-73
2023/02/25 05:13:42;;;;;;;1999.90;999.90;;;3.50;99.90;;;;;;5073886;28;20029;-73
2023/02/25 05:16:15;;;;;;;1999.90;999.90;;;3.50;99.90;;;;;;5073846;28;20447;-78
2023/02/25 05:18:42;;;;;;;1999.90;999.90;;;3.60;99.90;;;;;;5073868;28;20060;-73
2023/02/25 05:21:11;;;;;;;1999.90;999.90;;;3.60;99.90;;;;;;5073519;28;20029;-73
2023/02/25 05:23:40;;;;;;;1999.90;999.90;;;3.70;99.90;;;;;;5073486;28;20044;-73
2023/02/25 05:26:06;;;;;;;1999.90;999.90;;;3.70;99.90;;;;;;5073721;28;20025;-73
2023/02/25 05:28:32;;;;;;;1999.90;999.90;;;3.70;99.90;;;;;;5073721;28;20099;-73
2023/02/25 05:30:58;;;;;;;1999.90;999.90;;;3.80;99.90;;;;;;5073491;28;20031;-78
2023/02/25 05:33:23;;;;;;;1999.90;999.90;;;3.80;99.90;;;;;;5073501;28;20024;-73
2023/02/25 05:35:50;;;;;;;1999.90;999.90;;;3.80;99.90;;;;;;5073380;28;20020;-73
2023/02/25 05:38:16;;;;;;;1999.90;999.90;;;3.80;99.90;;;;;;5075647;28;20401;-73
2023/02/25 05:40:41;;;;;;;1999.90;999.90;;;3.70;99.90;;;;;;5093809;28;20024;-73
2023/02/25 05:43:07;;;;;;;1999.90;999.90;;;3.70;99.90;;;;;;5093438;28;20115;-78
2023/02/25 05:45:34;;;;;;;1999.90;999.90;;;3.60;99.90;;;;;;5088664;28;20021;-73
2023/02/25 05:47:59;;;;;;;1999.90;999.90;;;3.60;99.90;;;;;;5093416;28;20107;-73
2023/02/25 05:50:25;;;;;;;1999.90;999.90;;;3.60;99.90;;;;;;5093657;28;20111;-73
2023/02/25 05:52:51;;;;;;;1999.90;999.90;;;3.50;99.90;;;;;;5093498;28;20100;-73
2023/02/25 05:55:16;;;;;;;1999.90;999.90;;;3.50;99.90;;;;;;5093163;28;20028;-73
2023/02/25 05:57:42;;;;;;;1999.90;999.90;;;3.50;99.90;;;;;;5093175;28;20031;-73
2023/02/25 06:00:13;;;;;;;1999.90;999.90;;;3.50;99.90;;;;;;5093231;28;20024;-73
2023/02/25 06:02:40;;;;;;;1999.90;999.90;;;3.50;99.90;;;;;;5093471;28;20048;-73
2023/02/25 06:05:06;;;;;;;1999.90;999.90;;;3.50;99.90;;;;;;5073759;28;20093;-73
2023/02/25 06:07:33;;;;;;;1999.90;999.90;;;3.50;99.90;;;;;;5073086;28;20024;-78
2023/02/25 06:09:59;;;;;;;1999.90;999.90;;;3.60;99.90;;;;;;5071437;28;20049;-78
2023/02/25 06:12:28;;;;;;;1999.90;999.90;;;3.50;99.90;;;;;;5072929;28;20039;-73
2023/02/25 06:14:54;;;;;;;1999.90;999.90;;;3.50;99.90;;;;;;5073094;28;20104;-73
2023/02/25 06:17:19;;;;;;;1999.90;999.90;;;3.60;99.90;;;;;;5072588;28;20116;-73
2023/02/25 06:19:45;;;;;;;1999.90;999.90;;;3.60;99.90;;;;;;5072309;28;20032;-73
2023/02/25 06:22:10;;;;;;;1999.90;999.90;;;3.60;99.90;;;;;;5070556;28;20443;-73
2023/02/25 06:24:36;;;;;;;1999.90;999.90;;;3.60;99.90;;;;;;5072718;28;20118;-73
2023/02/25 06:27:02;;;;;;;1999.90;999.90;;;3.50;99.90;;;;;;5072678;28;20056;-73
2023/02/25 06:29:27;;;;;;;1999.90;999.90;;;3.50;99.90;;;;;;5072297;28;20441;-73
2023/02/25 06:31:53;;;;;;;1999.90;999.90;;;3.50;99.90;;;;;;5072248;28;20033;-73
2023/02/25 06:34:19;;;;;;;1999.90;999.90;;;3.40;99.90;;;;;;5072538;28;20016;-78
2023/02/25 06:36:45;;;;;;;1999.90;999.90;;;3.40;99.90;;;;;;5086483;28;20028;-78
2023/02/25 06:39:11;;;;;;;1999.90;999.90;;;3.40;99.90;;;;;;5092116;28;20445;-73
2023/02/25 06:41:37;;;;;;;1999.90;999.90;;;3.40;99.90;;;;;;5092302;28;20028;-73
2023/02/25 06:44:04;;;;;;;1999.90;999.90;;;3.40;99.90;;;;;;5092453;28;20024;-73
2023/02/25 06:46:29;;;;;;;1999.90;999.90;;;3.50;99.90;;;;;;5088328;28;20047;-79
2023/02/25 06:48:56;;;;;;;1999.90;999.90;;;3.70;99.90;;;;;;5092557;28;20024;-79
2023/02/25 06:51:22;;;;;;;1999.90;999.90;;;3.80;99.90;;;;;;5092200;28;20103;-73
2023/02/25 06:53:48;;;;;;;1999.90;999.90;;;3.80;99.90;;;;;;5092198;28;20059;-74
2023/02/25 06:56:14;;;;;;;1999.90;999.90;;;3.90;99.90;;;;;;5092392;28;20024;-74
2023/02/25 06:58:41;;;;;;;1999.90;999.90;;;3.90;99.90;;;;;;5091398;28;20077;-79
2023/02/25 07:01:12;;;;;;;1999.90;999.90;;;3.90;99.90;;;;;;5092338;28;20036;-79
2023/02/25 07:03:38;;;;;;;1999.90;999.90;;;4.00;99.90;;;;;;5087148;28;20025;-73
2023/02/25 07:06:04;;;;;;;1999.90;999.90;;;4.00;99.90;;;;;;5072058;28;20013;-73
2023/02/25 07:08:30;;;;;;;1999.90;999.90;;;4.10;99.90;;;;;;5070662;28;20040;-73
2023/02/25 07:11:09;;;;;;;1999.90;999.90;;;4.10;99.90;;;;;;5072315;28;20024;-73
2023/02/25 07:13:35;;;;;;;1999.90;999.90;;;4.20;99.90;;;;;;5071807;28;20021;-79
2023/02/25 07:16:01;;;;;;;1999.90;999.90;;;4.30;99.90;;;;;;5071746;28;20052;-79
2023/02/25 07:18:26;;;;;;;1999.90;999.90;;;4.30;99.90;;;;;;5071375;28;20060;-73
2023/02/25 07:20:52;;;;;;;1999.90;999.90;;;4.40;99.90;;;;;;5072111;28;20472;-73
2023/02/25 07:23:18;;;;;;;1999.90;999.90;;;4.40;99.90;;;;;;5071164;28;20060;-73
2023/02/25 07:25:43;;;;;;;1999.90;999.90;;;4.30;99.90;;;;;;5071733;28;20025;-73
2023/02/25 07:28:09;;;;;;;1999.90;999.90;;;4.30;99.90;;;;;;5071627;28;20032;-79
2023/02/25 07:30:35;;;;;;;1999.90;999.90;;;4.30;99.90;;;;;;5071986;28;20040;-73
2023/02/25 07:33:00;;;;;;;1999.90;999.90;;;4.40;99.90;;;;;;5071814;28;20031;-73
2023/02/25 07:35:26;;;;;;;1999.90;999.90;;;4.50;99.90;;;;;;5072163;28;20037;-74
2023/02/25 07:37:51;;;;;;;1999.90;999.90;;;4.60;99.90;;;;;;5071461;28;20024;-73
2023/02/25 07:40:18;;;;;;;1999.90;999.90;;;4.70;99.90;;;;;;5090800;28;20035;-79
2023/02/25 07:42:44;;;;;;;1999.90;999.90;;;4.80;99.90;;;;;;5090450;28;20484;-73
2023/02/25 07:45:10;;;;;;;1999.90;999.90;;;4.80;99.90;;;;;;5089175;28;20150;-74
2023/02/25 07:47:36;;;;;;;1999.90;999.90;;;4.90;99.90;;;;;;5087711;28;20512;-73
2023/02/25 07:50:04;;;;;;;1999.90;999.90;;;4.90;99.90;;;;;;5091823;28;20028;-73
2023/02/25 07:52:30;;;;;;;1999.90;999.90;;;5.00;99.90;;;;;;5091790;28;20424;-79
2023/02/25 07:54:55;;;;;;;1999.90;999.90;;;5.10;99.90;;;;;;5091897;28;20028;-79
2023/02/25 07:57:22;;;;;;;1999.90;999.90;;;5.20;99.90;;;;;;5091559;28;20500;-73
2023/02/25 07:59:47;;;;;;;1999.90;999.90;;;5.40;99.90;;;;;;5091512;28;20070;-74
2023/02/25 08:02:14;;;;;;;1999.90;999.90;;;5.50;99.90;;;;;;5091704;28;20052;-73
2023/02/25 08:04:40;;;;;;;1999.90;999.90;;;5.70;99.90;;;;;;5075831;28;20099;-79
2023/02/25 08:07:05;;;;;;;1999.90;999.90;;;6.30;99.90;;;;;;5071826;28;20107;-79
2023/02/25 08:09:31;;;;;;;1999.90;999.90;;;6.60;99.90;;;;;;5072996;28;20041;-74
2023/02/25 08:11:57;;;;;;;1999.90;999.90;;;8.00;99.90;;;;;;5074989;28;20543;-74
2023/02/25 08:14:23;;;;;;;1999.90;999.90;;;8.30;99.90;;;;;;5075138;28;20036;-74
2023/02/25 08:16:49;;;;;;;1999.90;999.90;;;7.70;99.90;;;;;;5090702;28;20511;-79
2023/02/25 08:19:15;;;;;;;1999.90;999.90;;;8.40;99.90;;;;;;5074386;28;20392;-79
2023/02/25 08:21:41;;;;;;;1999.90;999.90;;;9.60;99.90;;;;;;5074763;28;20025;-74
2023/02/25 08:24:08;;;;;;;1999.90;999.90;;;9.70;99.90;;;;;;5074172;28;20107;-73
2023/02/25 08:26:34;;;;;;;1999.90;999.90;;;8.50;99.90;;;;;;5074941;28;20025;-74
2023/02/25 08:29:00;;;;;;;1999.90;999.90;;;7.80;99.90;;;;;;5074883;28;20100;-74
2023/02/25 08:31:25;;;;;;;1999.90;999.90;;;7.40;99.90;;;;;;5074622;28;20032;-73
2023/02/25 08:33:51;;;;;;;1999.90;999.90;;;7.40;99.90;;;;;;5074618;28;20523;-79
2023/02/25 08:36:23;;;;;;;1999.90;999.90;;;7.50;99.90;;;;;;5074511;28;20081;-74
2023/02/25 08:38:50;;;;;;;1999.90;999.90;;;7.60;99.90;;;;;;5081613;28;20024;-74
2023/02/25 08:41:17;;;;;;;1999.90;999.90;;;7.90;99.90;;;;;;5094770;28;20047;-74
2023/02/25 08:43:43;;;;;;;1999.90;999.90;;;8.80;99.90;;;;;;5094649;28;20093;-80
2023/02/25 08:46:09;;;;;;;1999.90;999.90;;;10.90;99.90;;;;;;5094411;28;20552;-80
2023/02/25 08:48:35;;;;;;;1999.90;999.90;;;12.40;99.90;;;;;;5094924;28;20020;-74
2023/02/25 08:51:09;;;;;;;1999.90;999.90;;;13.20;99.90;;;;;;5094684;28;20149;-74
2023/02/25 08:53:37;;;;;;;1999.90;999.90;;;13.60;99.90;;;;;;5094576;28;20071;-74
2023/02/25 08:56:04;;;;;;;1999.90;999.90;;;14.00;99.90;;;;;;5093110;28;20072;-80
2023/02/25 08:58:30;;;;;;;1999.90;999.90;;;14.10;99.90;;;;;;5094424;28;20075;-80
2023/02/25 09:00:56;;;;;;;1999.90;999.90;;;14.30;99.90;;;;;;5094388;28;20117;-74
2023/02/25 09:03:21;;;;;;;1999.90;999.90;;;13.50;99.90;;;;;;5089216;28;20013;-74
2023/02/25 09:05:55;;;;;;;1999.90;999.90;;;12.70;99.90;;;;;;5074055;28;20037;-74
2023/02/25 09:08:20;;;;;;;1999.90;999.90;;;13.60;99.90;;;;;;5073990;28;20481;-79
2023/02/25 09:10:46;;;;;;;1999.90;999.90;;;14.50;99.90;;;;;;5074132;28;20033;-79
2023/02/25 09:13:13;;;;;;;1999.90;999.90;;;13.60;99.90;;;;;;5073885;28;20086;-79
2023/02/25 09:15:40;;;;;;;1999.90;999.90;;;12.80;99.90;;;;;;5073886;28;20032;-74
2023/02/25 09:18:05;;;;;;;1999.90;999.90;;;12.80;99.90;;;;;;5073877;28;20060;-74
2023/02/25 09:20:31;;;;;;;1999.90;999.90;;;13.00;99.90;;;;;;5072926;28;20504;-74
2023/02/25 09:22:58;;;;;;;1999.90;999.90;;;13.50;99.90;;;;;;5073848;28;20036;-75
2023/02/25 09:25:24;;;;;;;1999.90;999.90;;;14.00;99.90;;;;;;5073021;28;20040;-74
2023/02/25 09:27:50;;;;;;;1999.90;999.90;;;12.90;99.90;;;;;;5073860;28;20021;-74
2023/02/25 09:30:16;;;;;;;1999.90;999.90;;;12.40;99.90;;;;;;5073475;28;20396;-74
2023/02/25 09:32:42;;;;;;;1999.90;999.90;;;11.20;99.90;;;;;;5073820;28;20025;-74
2023/02/25 09:35:08;;;;;;;1999.90;999.90;;;10.40;99.90;;;;;;5073613;28;20032;-79
2023/02/25 09:37:34;;;;;;;1999.90;999.90;;;9.50;99.90;;;;;;5072114;28;20401;-79
2023/02/25 09:40:00;;;;;;;1999.90;999.90;;;9.10;99.90;;;;;;5090024;28;20028;-74
2023/02/25 09:42:56;;;;;;;1999.90;999.90;;;8.70;99.90;;;;;;5093529;28;20060;-73
2023/02/25 09:45:24;;;;;;;1999.90;999.90;;;8.50;99.90;;;;;;5089343;28;20016;-73
2023/02/25 09:47:56;;;;;;;1999.90;999.90;;;8.40;99.90;;;;;;5093246;28;20040;-78
2023/02/25 09:50:34;;;;;;;1999.90;999.90;;;8.30;99.90;;;;;;5093592;28;20024;-78
2023/02/25 09:53:18;;;;;;;1999.90;999.90;;;8.20;99.90;;;;;;5092262;28;20460;-73
2023/02/25 09:55:48;;;;;;;1999.90;999.90;;;8.20;99.90;;;;;;5093288;28;20114;-73
2023/02/25 09:58:33;;;;;;;1999.90;999.90;;;8.30;99.90;;;;;;5093283;28;20423;-73
2023/02/25 10:01:06;;;;;;;1999.90;999.90;;;8.30;99.90;;;;;;5093489;28;20032;-78
2023/02/25 10:03:37;;;;;;;;;;;9.10;99.90;;;;;;5087145;28;20017;-78
2023/02/25 10:06:15;;;;;;;1999.90;999.90;;;9.50;99.90;;;;;;5072971;28;19908;-73
2023/02/25 10:08:54;;;;;;;1999.90;999.90;;;9.70;99.90;;;;;;5072989;28;20029;-73
2023/02/25 10:11:45;;;;;;;1999.90;999.90;;;9.90;99.90;;;;;;5071444;28;20039;-73
2023/02/25 10:14:37;;;;;;;1999.90;999.90;;;10.00;99.90;;;;;;5072539;28;20074;-73
2023/02/25 10:17:27;;;;;;;1999.90;999.90;;;10.20;99.90;;;;;;5069986;28;20582;-73
2023/02/25 10:19:56;;;;;;;1999.90;999.90;;;10.40;99.90;;;;;;5072462;28;20031;-73
2023/02/25 10:22:59;;;;;;;1999.90;999.90;;;10.70;99.90;;;;;;5072570;28;20103;-73
2023/02/25 10:25:31;;;;;;;1999.90;999.90;;;10.80;99.90;;;;;;5071717;28;20082;-73
2023/02/25 10:28:06;;;;;;;1999.90;999.90;;;10.60;99.90;;;;;;5092472;28;20115;-78
2023/02/25 10:30:46;;;;;;;1999.90;999.90;;;10.80;99.90;;;;;;5113319;28;20020;-73
2023/02/25 10:33:20;;;;;;;1999.90;999.90;;;10.60;99.90;;;;;;5112500;28;20035;-74
2023/02/25 10:35:50;;;;;;;1999.90;999.90;;;10.10;99.90;;;;;;5112695;28;20028;-73
2023/02/25 10:38:16;;;;;;;1999.90;999.90;;;9.90;99.90;;;;;;5109794;28;20036;-73
2023/02/25 10:40:41;;;;;;;1999.90;999.90;;;9.80;99.90;;;;;;5092240;28;20084;-73
2023/02/25 10:43:22;;;;;;;1999.90;999.90;;;9.60;99.90;;;;;;5091066;28;20030;-78
2023/02/25 10:46:30;;;;;;;1999.90;999.90;;;9.50;99.90;;;;;;5092271;28;20508;-73
2023/02/25 10:48:59;;;;;;;1999.90;999.90;;;9.30;99.90;;;;;;5065451;28;20407;-73
2023/02/25 10:51:27;;;;;;;1999.90;999.90;;;9.80;99.90;;;;;;5092228;28;20183;-73
2023/02/25 10:53:56;;;;;;;1999.90;999.90;;;10.50;99.90;;;;;;5092300;28;20035;-78
2023/02/25 10:56:27;;;;;;;1999.90;999.90;;;11.40;99.90;;;;;;5092295;28;20020;-78
2023/02/25 10:59:21;;;;;;;1999.90;999.90;;;12.00;99.90;;;;;;5092502;28;20024;-73
2023/02/25 11:01:47;;;;;;;1999.90;999.90;;;11.90;99.90;;;;;;5091536;28;20021;-73
2023/02/25 11:04:17;;;;;;;1999.90;999.90;;;10.90;99.90;;;;;;5079756;28;20021;-73
2023/02/25 11:06:43;;;;;;;1999.90;999.90;;;10.40;99.90;;;;;;5072552;28;20460;-73
2023/02/25 11:09:18;;;;;;;1999.90;999.90;;;10.20;99.90;;;;;;5072200;28;20033;-73
2023/02/25 11:12:19;;;;;;;1999.90;999.90;;;9.80;99.90;;;;;;5071991;28;20542;-74
2023/02/25 11:14:45;;;;;;;1999.90;999.90;;;9.60;99.90;;;;;;5061330;28;20036;-73
2023/02/25 11:17:19;;;;;;;1999.90;999.90;;;9.50;99.90;;;;;;5071886;28;20021;-73
2023/02/25 11:20:15;;;;;;;1999.90;999.90;;;9.80;99.90;;;;;;5071877;28;20055;-73
2023/02/25 11:22:43;;;;;;;1999.90;999.90;;;10.30;99.90;;;;;;5072028;28;20103;-73
2023/02/25 11:25:17;;;;;;;1999.90;999.90;;;10.40;99.90;;;;;;5071322;28;20051;-73
2023/02/25 11:27:48;;;;;;;1999.90;999.90;;;10.00;99.90;;;;;;5071740;28;20389;-74
2023/02/25 11:30:14;;;;;;;1999.90;999.90;;;10.00;99.90;;;;;;5071577;28;20036;-73
2023/02/25 11:32:44;;;;;;;1999.90;999.90;;;10.30;99.90;;;;;;5071985;28;20021;-73
2023/02/25 11:35:34;;;;;;;1999.90;999.90;;;10.90;99.90;;;;;;5071940;28;20568;-73
2023/02/25 11:38:24;;;;;;;1999.90;999.90;;;11.30;99.90;;;;;;5071572;28;20070;-74
2023/02/25 11:40:50;;;;;;;1999.90;999.90;;;11.10;99.90;;;;;;5091864;28;20038;-73
2023/02/25 11:43:42;;;;;;;1999.90;999.90;;;10.90;99.90;;;;;;5091596;28;20370;-73
2023/02/25 11:46:11;;;;;;;1999.90;999.90;;;11.00;99.90;;;;;;5087051;28;20070;-73
2023/02/25 11:49:08;;;;;;;1999.90;999.90;;;10.80;99.90;;;;;;5094491;28;20028;-73
2023/02/25 11:51:54;;;;;;;1999.90;999.90;;;10.30;99.90;;;;;;5095885;28;20039;-78
2023/02/25 11:54:19;;;;;;;1999.90;999.90;;;9.90;99.90;;;;;;5094388;28;20036;-78
2023/02/25 11:57:00;;;;;;;1999.90;999.90;;;10.00;99.90;;;;;;5095582;28;20031;-73
2023/02/25 11:59:43;;;;;;;1999.90;999.90;;;9.90;99.90;;;;;;5095319;28;20105;-73
2023/02/25 12:02:40;;;;;;;1999.90;999.90;;;10.00;99.90;;;;;;5095584;28;20024;-73
2023/02/25 12:05:37;;;;;;;1999.90;999.90;;;10.30;99.90;;;;;;5090665;28;20028;-73
2023/02/25 12:08:34;;;;;;;1999.90;999.90;;;10.60;99.90;;;;;;5075112;28;20028;-73
2023/02/25 12:11:06;;;;;;;1999.90;999.90;;;10.90;99.90;;;;;;5049748;28;20033;-73
2023/02/25 12:13:49;;;;;;;1999.90;999.90;;;10.70;99.90;;;;;;5073533;28;20031;-74
2023/02/25 12:16:52;;;;;;;1999.90;999.90;;;10.50;99.90;;;;;;5074991;28;20031;-73
2023/02/25 12:19:52;;;;;;;1999.90;999.90;;;10.50;99.90;;;;;;5074782;28;20032;-73
2023/02/25 12:22:44;;;;;;;1999.90;999.90;;;10.90;99.90;;;;;;5074935;28;20035;-78